Time;durP1;ratioP1;P1;durP2;ratioP2;P2;SDS_P1;SDS_P2;PMS_P1;PMS_P2;Temp;Humidity;BMP_temperature;BMP_pressure;BME280_temperature;BME280_humidity;BME280_pressure;Samples;Min_cycle;Max_cycle;Signal;HPM_P1;HPM_P2
2021/10/19 00:00:37;;;;;;;20.30;8.60;;;;;;;9.87;82.54;101366.58;115730;1192;72041;-78
2021/10/19 00:03:05;;;;;;;21.20;11.50;;;;;;;9.86;82.80;101367.00;115787;1192;72497;-78
2021/10/19 00:05:32;;;;;;;18.20;11.20;;;;;;;9.85;82.80;101359.98;115611;1192;62932;-78
2021/10/19 00:07:58;;;;;;;18.30;10.30;;;;;;;9.83;83.90;101362.00;115628;1192;59934;-78
2021/10/19 00:10:25;;;;;;;15.50;9.10;;;;;;;9.82;84.35;101363.89;115788;1192;58945;-78
2021/10/19 00:12:52;;;;;;;17.40;11.00;;;;;;;9.79;84.51;101372.21;115822;1192;71109;-78
2021/10/19 00:15:19;;;;;;;18.60;11.50;;;;;;;9.78;84.72;101371.31;115849;1192;58903;-78
2021/10/19 00:17:46;;;;;;;15.00;9.10;;;;;;;9.77;84.69;101376.13;115797;1192;61998;-78
2021/10/19 00:20:15;;;;;;;18.90;11.00;;;;;;;9.77;84.62;101376.17;115815;1192;60390;-78
2021/10/19 00:22:42;;;;;;;18.40;9.90;;;;;;;9.76;84.79;101375.01;115782;1192;75540;-78
2021/10/19 00:25:14;;;;;;;20.30;11.40;;;;;;;9.76;84.67;101369.91;115468;1192;72207;-78
2021/10/19 00:27:41;;;;;;;21.00;10.50;;;;;;;9.76;84.81;101367.42;115722;1192;72997;-78
2021/10/19 00:30:10;;;;;;;19.20;10.50;;;;;;;9.77;84.71;101364.88;115718;1192;61090;-78
2021/10/19 00:32:38;;;;;;;19.50;11.10;;;;;;;9.77;84.75;101363.21;115855;1192;60187;-78
2021/10/19 00:35:06;;;;;;;20.50;11.40;;;;;;;9.77;84.65;101356.56;115904;1192;74612;-78
2021/10/19 00:37:32;;;;;;;19.60;11.40;;;;;;;9.77;84.58;101359.70;115767;1192;71111;-78
2021/10/19 00:39:59;;;;;;;18.30;10.30;;;;;;;9.78;84.58;101356.08;115851;1192;59032;-78
2021/10/19 00:42:25;;;;;;;16.20;10.20;;;;;;;9.79;84.73;101357.02;115590;1192;60825;-78
2021/10/19 00:44:52;;;;;;;21.40;12.90;;;;;;;9.80;84.75;101363.15;115685;1192;60961;-79
2021/10/19 00:47:20;;;;;;;18.50;10.80;;;;;;;9.82;84.78;101361.42;115775;1192;74685;-78
2021/10/19 00:49:49;;;;;;;17.60;9.90;;;;;;;9.83;84.69;101363.43;115752;1192;72533;-78
2021/10/19 00:52:18;;;;;;;21.00;11.10;;;;;;;9.84;84.84;101357.50;115758;1192;73579;-78
2021/10/19 00:54:47;;;;;;;18.80;9.40;;;;;;;9.84;84.73;101351.81;115764;1192;61249;-78
2021/10/19 00:57:15;;;;;;;18.80;10.00;;;;;;;9.85;84.90;101360.36;115773;1192;60704;-78
2021/10/19 00:59:46;;;;;;;16.60;8.90;;;;;;;9.88;84.82;101359.05;115809;1192;74373;-78
2021/10/19 01:02:13;;;;;;;21.20;11.30;;;;;;;9.89;85.00;101356.83;115564;1192;70758;-79
2021/10/19 01:04:44;;;;;;;17.40;10.00;;;;;;;9.90;84.90;101345.70;115777;1192;72858;-78
2021/10/19 01:07:15;;;;;;;21.10;10.80;;;;;;;9.92;84.82;101345.91;115731;1192;61878;-78
2021/10/19 01:09:41;;;;;;;21.30;11.60;;;;;;;9.94;84.87;101345.16;115745;1192;61355;-78
2021/10/19 01:12:09;;;;;;;21.00;11.20;;;;;;;9.95;84.65;101353.65;115798;1192;59450;-78
2021/10/19 01:14:37;;;;;;;16.10;10.20;;;;;;;9.97;84.70;101355.98;115750;1192;72066;-78
2021/10/19 01:17:04;;;;;;;23.10;10.90;;;;;;;9.98;84.68;101355.20;115692;1192;72570;-78
2021/10/19 01:19:31;;;;;;;20.20;10.00;;;;;;;10.00;84.64;101353.00;115564;1192;63381;-78
2021/10/19 01:22:07;;;;;;;18.10;9.40;;;;;;;10.01;84.72;101358.96;115752;1192;60090;-78
2021/10/19 01:24:37;;;;;;;17.50;8.80;;;;;;;10.02;84.60;101354.94;115761;1192;73099;-78
2021/10/19 01:27:13;;;;;;;19.60;10.70;;;;;;;10.04;84.57;101349.29;115606;1192;71056;-78
2021/10/19 01:29:42;;;;;;;16.70;8.20;;;;;;;10.05;84.55;101340.88;115773;1192;72577;-78
2021/10/19 01:32:08;;;;;;;22.40;11.80;;;;;;;10.06;84.74;101332.27;115560;1193;62094;-78
2021/10/19 01:34:35;;;;;;;21.60;11.80;;;;;;;10.07;84.52;101323.31;115711;1192;59006;-78
2021/10/19 01:37:03;;;;;;;18.50;10.80;;;;;;;10.09;84.69;101320.18;115742;1192;74789;-78
2021/10/19 01:39:30;;;;;;;19.30;10.50;;;;;;;10.09;84.68;101319.74;115536;1192;70957;-78
2021/10/19 01:41:57;;;;;;;20.00;11.40;;;;;;;10.10;84.62;101326.22;115760;1192;72669;-78
2021/10/19 01:44:23;;;;;;;16.90;10.10;;;;;;;10.10;84.67;101327.41;115734;1192;62122;-78
2021/10/19 01:46:50;;;;;;;17.40;9.60;;;;;;;10.12;84.70;101325.48;115564;1193;58959;-78
2021/10/19 01:49:16;;;;;;;23.20;11.60;;;;;;;10.13;84.76;101324.15;115759;1192;74356;-78
2021/10/19 01:51:45;;;;;;;19.50;9.80;;;;;;;10.14;84.69;101310.64;115697;1192;59183;-78
2021/10/19 01:54:12;;;;;;;14.10;7.30;;;;;;;10.15;84.85;101309.81;115908;1192;72570;-78
2021/10/19 01:56:41;;;;;;;14.40;9.10;;;;;;;10.16;84.85;101314.83;115720;1192;58963;-78
2021/10/19 01:59:09;;;;;;;19.00;10.90;;;;;;;10.15;84.96;101316.80;115408;1192;61255;-78
2021/10/19 02:01:39;;;;;;;17.50;9.40;;;;;;;10.16;84.96;101310.69;115738;1192;59006;-79
2021/10/19 02:04:06;;;;;;;18.00;10.20;;;;;;;10.18;84.89;101313.16;115568;1192;70267;-78
2021/10/19 02:06:32;;;;;;;18.80;10.30;;;;;;;10.20;84.85;101305.93;115749;1192;59070;-78
2021/10/19 02:08:59;;;;;;;16.90;9.60;;;;;;;10.21;84.83;101302.92;115778;1187;58965;-78
2021/10/19 02:11:25;;;;;;;17.60;9.40;;;;;;;10.23;84.82;101307.58;115753;1192;58926;-78
2021/10/19 02:13:52;;;;;;;18.90;10.60;;;;;;;10.25;84.88;101311.46;115773;1192;58928;-78
2021/10/19 02:16:18;;;;;;;19.80;10.30;;;;;;;10.27;84.76;101312.33;115567;1192;59566;-78
2021/10/19 02:18:45;;;;;;;18.60;10.70;;;;;;;10.28;84.70;101316.13;115507;1192;72368;-78
2021/10/19 02:21:11;;;;;;;20.20;11.00;;;;;;;10.29;84.83;101321.27;115572;1193;59098;-78
2021/10/19 02:23:38;;;;;;;21.30;11.00;;;;;;;10.32;84.85;101320.83;115759;1192;58943;-78
2021/10/19 02:26:04;;;;;;;16.90;9.60;;;;;;;10.35;84.62;101308.70;115597;1192;58907;-78
2021/10/19 02:28:31;;;;;;;20.20;10.10;;;;;;;10.38;84.57;101306.80;115552;1193;72028;-78
2021/10/19 02:30:58;;;;;;;19.40;10.80;;;;;;;10.41;84.44;101308.05;115710;1192;58699;-78
2021/10/19 02:33:24;;;;;;;18.50;9.40;;;;;;;10.43;84.46;101311.18;115514;1192;62325;-78
2021/10/19 02:35:52;;;;;;;18.50;9.80;;;;;;;10.46;84.41;101309.70;115390;1192;60951;-79
2021/10/19 02:38:19;;;;;;;16.50;8.80;;;;;;;10.49;84.22;101303.39;115692;1192;59042;-79
2021/10/19 02:40:48;;;;;;;23.00;11.80;;;;;;;10.51;84.10;101299.75;115483;1193;71074;-79
2021/10/19 02:43:15;;;;;;;18.60;11.00;;;;;;;10.52;84.05;101292.52;115710;1192;73962;-78
2021/10/19 02:45:41;;;;;;;18.10;11.50;;;;;;;10.55;83.91;101293.17;115775;1192;62009;-78
2021/10/19 02:48:08;;;;;;;19.00;10.80;;;;;;;10.56;83.89;101283.83;115743;1192;61568;-78
2021/10/19 02:50:35;;;;;;;23.70;12.00;;;;;;;10.59;83.89;101281.24;115753;1192;60760;-78
2021/10/19 02:53:01;;;;;;;19.00;10.90;;;;;;;10.60;83.80;101274.75;115674;1192;72019;-78
2021/10/19 02:55:28;;;;;;;16.50;9.00;;;;;;;10.63;83.81;101286.20;115307;1187;59130;-78
2021/10/19 02:57:54;;;;;;;16.40;9.80;;;;;;;10.64;83.67;101287.27;115752;1192;58721;-78
2021/10/19 03:00:21;;;;;;;16.10;9.30;;;;;;;10.67;83.63;101287.30;115775;1192;60306;-78
2021/10/19 03:02:48;;;;;;;18.90;11.30;;;;;;;10.69;83.50;101292.08;115848;1192;75957;-79
2021/10/19 03:05:15;;;;;;;17.20;9.90;;;;;;;10.72;83.53;101292.69;115912;1192;72125;-79
2021/10/19 03:07:42;;;;;;;15.50;9.10;;;;;;;10.74;83.38;101285.94;115843;1191;72444;-79
2021/10/19 03:10:09;;;;;;;19.30;10.50;;;;;;;10.75;83.23;101285.57;115858;1192;60714;-79
2021/10/19 03:12:35;;;;;;;16.80;9.80;;;;;;;10.78;83.15;101290.27;115422;1192;60841;-78
2021/10/19 03:15:03;;;;;;;16.80;10.50;;;;;;;10.79;83.12;101291.13;115657;1192;75852;-78
2021/10/19 03:17:29;;;;;;;19.50;9.40;;;;;;;10.81;83.03;101277.30;115770;1192;72028;-78
2021/10/19 03:19:56;;;;;;;15.40;9.60;;;;;;;10.84;83.03;101279.55;115758;1192;59081;-78
2021/10/19 03:22:22;;;;;;;20.20;10.60;;;;;;;10.84;82.95;101274.24;115760;1192;60875;-79
2021/10/19 03:24:49;;;;;;;16.10;9.30;;;;;;;10.84;83.01;101276.17;115573;1192;60303;-78
2021/10/19 03:27:19;;;;;;;20.20;10.10;;;;;;;10.84;83.01;101271.53;115542;1192;75117;-78
2021/10/19 03:29:45;;;;;;;15.30;9.10;;;;;;;10.85;82.94;101273.25;115743;1192;72025;-78
2021/10/19 03:32:12;;;;;;;18.40;10.20;;;;;;;10.86;82.98;101278.44;115664;1192;73655;-80
2021/10/19 03:34:38;;;;;;;15.30;8.70;;;;;;;10.86;82.90;101270.77;115641;1192;60880;-78
2021/10/19 03:37:06;;;;;;;16.70;9.40;;;;;;;10.89;82.89;101273.16;115678;1192;61256;-78
2021/10/19 03:39:38;;;;;;;15.20;7.70;;;;;;;10.91;82.72;101270.48;115830;1192;75573;-78
2021/10/19 03:42:05;;;;;;;17.10;8.90;;;;;;;10.92;82.77;101269.42;115968;1191;70164;-78
2021/10/19 03:44:31;;;;;;;18.60;9.20;;;;;;;10.93;82.72;101260.70;115978;1192;73599;-78
2021/10/19 03:46:58;;;;;;;15.90;8.30;;;;;;;10.95;82.81;101256.59;115851;1192;62917;-78
2021/10/19 03:49:24;;;;;;;18.50;8.70;;;;;;;10.97;82.70;101262.77;115591;1192;58815;-78
2021/10/19 03:51:51;;;;;;;17.40;8.70;;;;;;;10.98;82.65;101264.02;115497;1193;74593;-78
2021/10/19 03:54:18;;;;;;;18.60;9.80;;;;;;;10.99;82.62;101262.70;115573;1193;70996;-78
2021/10/19 03:56:45;;;;;;;14.10;8.60;;;;;;;10.99;82.56;101260.88;115569;1193;72537;-78
2021/10/19 03:59:11;;;;;;;15.50;9.70;;;;;;;11.00;82.54;101259.58;115804;1192;60351;-78
2021/10/19 04:01:38;;;;;;;16.80;10.40;;;;;;;11.00;82.44;101255.79;115898;1191;58966;-78
2021/10/19 04:04:04;;;;;;;11.60;7.10;;;;;;;11.01;82.51;101255.73;115905;1192;72289;-78
2021/10/19 04:06:31;;;;;;;16.70;9.00;;;;;;;11.01;82.42;101262.40;115838;1191;72551;-78
2021/10/19 04:09:00;;;;;;;14.90;7.60;;;;;;;11.02;82.48;101267.61;115706;1192;72544;-79
2021/10/19 04:11:27;;;;;;;19.40;9.30;;;;;;;11.04;82.47;101266.79;115877;1192;63061;-79
2021/10/19 04:13:53;;;;;;;15.60;9.20;;;;;;;11.05;82.27;101267.58;115913;1192;59005;-79
2021/10/19 04:16:20;;;;;;;17.00;9.90;;;;;;;11.06;82.17;101265.94;115922;1192;59549;-78
2021/10/19 04:18:46;;;;;;;15.60;8.90;;;;;;;11.07;82.15;101264.90;115960;1191;58921;-78
2021/10/19 04:21:13;;;;;;;15.40;8.30;;;;;;;11.07;82.14;101264.88;115930;1191;59038;-78
2021/10/19 04:23:39;;;;;;;18.90;9.70;;;;;;;11.08;82.07;101260.73;115884;1192;58879;-78
2021/10/19 04:26:06;;;;;;;15.80;9.10;;;;;;;11.08;82.15;101262.80;115833;1192;59484;-78
2021/10/19 04:28:33;;;;;;;19.30;10.90;;;;;;;11.07;82.28;101255.64;115733;1192;74391;-78
2021/10/19 04:30:59;;;;;;;23.30;11.40;;;;;;;11.06;82.19;101252.95;115771;1192;72071;-78
2021/10/19 04:33:26;;;;;;;18.10;10.40;;;;;;;11.06;82.19;101252.55;115910;1191;58954;-78
2021/10/19 04:35:53;;;;;;;19.00;10.70;;;;;;;11.06;82.30;101249.73;115810;1192;62715;-78
2021/10/19 04:38:19;;;;;;;19.20;9.70;;;;;;;11.07;82.33;101248.64;115826;1192;58456;-78
2021/10/19 04:40:46;;;;;;;18.20;10.80;;;;;;;11.07;82.26;101246.34;115525;1193;75591;-79
2021/10/19 04:43:12;;;;;;;16.40;8.60;;;;;;;11.07;82.17;101245.25;115729;1192;59234;-78
2021/10/19 04:45:39;;;;;;;17.90;9.20;;;;;;;11.07;82.30;101244.65;115574;1192;71382;-77
2021/10/19 04:48:06;;;;;;;15.20;8.00;;;;;;;11.08;82.30;101240.84;115886;1192;62962;-78
2021/10/19 04:50:34;;;;;;;18.60;10.40;;;;;;;11.09;82.19;101243.55;115930;1192;59931;-78
2021/10/19 04:53:04;;;;;;;23.80;10.50;;;;;;;11.11;82.18;101237.75;115880;1192;75679;-77
2021/10/19 04:55:37;;;;;;;16.00;9.70;;;;;;;11.13;82.19;101238.75;115794;1192;70802;-78
2021/10/19 04:58:06;;;;;;;;;;;;;;;11.14;82.26;101233.71;115749;1192;72855;-78
2021/10/19 05:00:33;;;;;;;23.00;11.30;;;;;;;11.15;82.18;101231.79;115743;1192;68386;-78
2021/10/19 05:03:00;;;;;;;18.10;9.80;;;;;;;11.17;82.24;101228.96;115667;1192;60887;-78
2021/10/19 05:05:27;;;;;;;16.50;9.90;;;;;;;11.17;82.16;101232.78;115713;1192;74594;-78
2021/10/19 05:07:54;;;;;;;22.20;10.50;;;;;;;11.19;82.12;101234.41;115469;1192;71288;-77
2021/10/19 05:10:21;;;;;;;21.60;10.10;;;;;;;11.19;82.17;101225.27;115744;1192;58769;-78
2021/10/19 05:12:48;;;;;;;21.70;11.30;;;;;;;11.20;82.00;101211.94;115723;1192;60371;-77
2021/10/19 05:15:15;;;;;;;21.30;11.30;;;;;;;11.21;81.92;101211.66;115817;1192;60447;-78
2021/10/19 05:17:44;;;;;;;17.10;9.30;;;;;;;11.22;81.90;101208.59;115605;1192;74966;-78
2021/10/19 05:20:11;;;;;;;17.70;7.60;;;;;;;11.22;81.78;101208.89;115847;1191;72097;-78
2021/10/19 05:22:38;;;;;;;18.30;9.40;;;;;;;11.23;81.77;101203.46;115887;1192;71704;-78
2021/10/19 05:25:05;;;;;;;17.40;8.70;;;;;;;11.23;81.66;101192.98;115886;1184;61713;-78
2021/10/19 05:27:32;;;;;;;15.10;8.20;;;;;;;11.24;81.59;101192.90;115884;1191;60240;-78
2021/10/19 05:29:58;;;;;;;13.40;7.50;;;;;;;11.26;81.58;101190.41;115935;1192;75907;-78
2021/10/19 05:32:25;;;;;;;16.80;8.80;;;;;;;11.26;81.47;101188.48;115716;1192;59012;-79
2021/10/19 05:34:51;;;;;;;11.00;6.60;;;;;;;11.27;81.25;101191.52;115718;1191;59124;-78
2021/10/19 05:37:17;;;;;;;15.60;8.40;;;;;;;11.29;81.27;101186.89;115742;1192;60809;-79
2021/10/19 05:39:44;;;;;;;16.20;8.70;;;;;;;11.31;81.33;101179.59;115810;1191;59273;-79
2021/10/19 05:42:13;;;;;;;11.50;7.00;;;;;;;11.33;81.21;101174.81;115767;1186;75754;-79
2021/10/19 05:44:45;;;;;;;8.80;5.60;;;;;;;11.33;81.22;101168.16;115748;1192;72039;-78
2021/10/19 05:47:12;;;;;;;13.00;7.60;;;;;;;11.35;81.13;101166.90;115699;1192;72630;-78
2021/10/19 05:49:39;;;;;;;15.10;8.30;;;;;;;11.35;81.14;101170.30;115807;1192;61990;-78
2021/10/19 05:52:07;;;;;;;15.80;8.30;;;;;;;11.35;81.33;101167.23;115795;1192;61230;-78
2021/10/19 05:54:40;;;;;;;14.70;8.20;;;;;;;11.34;81.35;101162.95;115463;1192;75612;-79
2021/10/19 05:57:07;;;;;;;14.80;8.40;;;;;;;11.32;81.33;101163.77;115528;1192;70978;-79
2021/10/19 05:59:33;;;;;;;13.70;7.70;;;;;;;11.30;81.46;101168.23;115875;1192;72586;-78
2021/10/19 06:02:00;;;;;;;12.10;7.40;;;;;;;11.26;81.61;101159.91;115731;1192;59022;-78
2021/10/19 06:04:27;;;;;;;12.70;7.50;;;;;;;11.24;81.86;101161.05;115901;1192;60009;-78
2021/10/19 06:06:54;;;;;;;15.70;8.50;;;;;;;11.23;81.83;101165.46;115822;1192;74694;-78
2021/10/19 06:09:21;;;;;;;12.20;6.60;;;;;;;11.22;81.82;101155.27;115646;1192;71664;-78
2021/10/19 06:11:48;;;;;;;14.40;8.30;;;;;;;11.19;81.89;101150.02;115803;1192;72549;-78
2021/10/19 06:14:22;;;;;;;15.00;8.90;;;;;;;11.17;81.91;101149.45;115341;1192;61034;-79
2021/10/19 06:16:49;;;;;;;14.00;8.70;;;;;;;11.15;81.99;101147.38;115714;1192;61295;-78
2021/10/19 06:19:16;;;;;;;14.10;8.50;;;;;;;11.12;82.00;101145.16;115525;1192;73576;-79
2021/10/19 06:21:43;;;;;;;13.40;6.80;;;;;;;11.11;82.19;101147.61;115864;1191;72023;-78
2021/10/19 06:24:10;;;;;;;15.00;9.00;;;;;;;11.09;82.21;101153.45;115767;1192;73613;-79
2021/10/19 06:26:37;;;;;;;17.50;8.40;;;;;;;11.10;82.21;101156.58;115768;1192;62075;-78
2021/10/19 06:29:11;;;;;;;16.50;8.60;;;;;;;11.12;82.21;101162.02;115783;1192;60256;-79
2021/10/19 06:31:45;;;;;;;15.60;8.80;;;;;;;11.16;82.12;101164.98;115794;1192;74610;-79
2021/10/19 06:34:12;;;;;;;14.30;8.20;;;;;;;11.21;82.02;101170.45;115426;1192;72037;-80
2021/10/19 06:36:39;;;;;;;13.30;8.90;;;;;;;11.27;81.99;101171.39;115740;1192;72662;-79
2021/10/19 06:39:06;;;;;;;15.00;8.00;;;;;;;11.33;81.76;101174.21;115764;1192;61760;-79
2021/10/19 06:41:33;;;;;;;15.00;9.00;;;;;;;11.40;81.70;101181.44;115761;1192;59218;-79
2021/10/19 06:44:00;;;;;;;15.40;8.80;;;;;;;11.47;81.62;101182.30;115789;1192;75636;-79
2021/10/19 06:46:48;;;;;;;14.30;8.30;;;;;;;11.55;81.31;101188.33;115863;1192;73005;-79
2021/10/19 06:49:16;;;;;;;14.20;8.10;;;;;;;11.61;81.28;101189.28;115594;1193;72428;-79
2021/10/19 06:51:43;;;;;;;13.00;8.10;;;;;;;11.63;82.27;101192.69;115886;1192;62463;-79
2021/10/19 06:54:09;;;;;;;15.50;8.00;;;;;;;11.67;82.26;101195.96;115417;1192;60927;-78
2021/10/19 06:56:36;;;;;;;13.00;6.70;;;;;;;11.71;82.50;101198.41;115787;1192;75590;-79
2021/10/19 06:59:03;;;;;;;15.30;8.60;;;;;;;11.73;82.35;101202.56;115662;1192;72047;-78
2021/10/19 07:01:29;;;;;;;12.80;7.20;;;;;;;11.78;81.78;101202.79;115824;1192;73603;-78
2021/10/19 07:03:57;;;;;;;11.50;6.80;;;;;;;11.80;81.04;101197.17;115770;1192;61970;-79
2021/10/19 07:06:24;;;;;;;16.00;9.40;;;;;;;11.87;81.28;101205.55;115666;1192;60207;-78
2021/10/19 07:08:53;;;;;;;20.30;9.70;;;;;;;11.93;80.74;101200.45;115792;1192;75763;-78
2021/10/19 07:11:25;;;;;;;14.30;9.10;;;;;;;11.99;80.18;101203.31;115825;1192;72257;-78
2021/10/19 07:13:53;;;;;;;14.20;8.30;;;;;;;12.04;79.86;101193.36;115400;1192;72140;-78
2021/10/19 07:16:20;;;;;;;14.20;8.20;;;;;;;12.10;79.62;101192.52;115686;1192;61583;-78
2021/10/19 07:18:47;;;;;;;11.60;6.60;;;;;;;12.15;79.56;101188.36;115796;1192;61272;-78
2021/10/19 07:21:14;;;;;;;14.30;8.60;;;;;;;12.19;79.21;101188.20;115550;1192;75669;-78
2021/10/19 07:23:41;;;;;;;14.80;8.40;;;;;;;12.25;79.05;101182.66;115512;1192;70982;-78
2021/10/19 07:26:07;;;;;;;15.90;8.70;;;;;;;12.29;79.10;101182.25;115684;1192;72368;-77
2021/10/19 07:28:43;;;;;;;16.40;7.90;;;;;;;12.34;79.06;101183.38;115747;1192;61226;-78
2021/10/19 07:31:09;;;;;;;13.40;6.90;;;;;;;12.43;79.15;101183.67;115554;1192;59276;-78
2021/10/19 07:33:36;;;;;;;13.40;8.30;;;;;;;12.50;79.29;101183.86;115902;1191;58729;-78
2021/10/19 07:36:03;;;;;;;14.50;8.80;;;;;;;12.58;78.79;101187.39;115807;1191;70956;-77
2021/10/19 07:38:30;;;;;;;12.50;7.40;;;;;;;12.65;78.53;101189.95;115554;1192;72128;-77
2021/10/19 07:40:56;;;;;;;14.70;9.10;;;;;;;12.69;77.56;101187.60;115797;1191;60715;-78
2021/10/19 07:43:23;;;;;;;17.20;9.10;;;;;;;12.73;77.51;101181.65;115776;1192;59246;-78
2021/10/19 07:45:50;;;;;;;16.90;9.20;;;;;;;12.75;76.99;101181.16;115635;1186;74417;-77
2021/10/19 07:48:16;;;;;;;14.70;8.10;;;;;;;12.77;77.21;101178.90;115628;1192;71185;-78
2021/10/19 07:50:47;;;;;;;17.50;9.10;;;;;;;12.81;77.18;101179.60;115757;1192;72592;-78
2021/10/19 07:53:15;;;;;;;12.90;8.00;;;;;;;12.83;77.26;101178.96;115773;1192;61922;-78
2021/10/19 07:55:43;;;;;;;20.10;9.90;;;;;;;12.81;76.84;101177.48;115774;1192;59998;-78
2021/10/19 07:58:10;;;;;;;14.50;9.20;;;;;;;12.79;77.07;101173.52;115653;1192;75901;-78
2021/10/19 08:00:37;;;;;;;14.20;7.30;;;;;;;12.75;77.03;101167.48;115500;1193;71056;-78
2021/10/19 08:03:04;;;;;;;11.90;7.50;;;;;;;12.73;77.41;101158.52;115856;1191;72624;-78
2021/10/19 08:05:30;;;;;;;15.40;8.20;;;;;;;12.73;77.44;101156.25;115698;1192;62034;-78
2021/10/19 08:08:25;;;;;;;12.80;7.70;;;;;;;12.73;77.44;101162.98;115701;1191;59030;-78
2021/10/19 08:10:52;;;;;;;15.30;8.00;;;;;;;12.74;77.64;101170.65;115803;1191;74877;-78
2021/10/19 08:13:19;;;;;;;13.50;8.10;;;;;;;12.74;77.44;101166.73;115767;1192;59316;-78
2021/10/19 08:15:46;;;;;;;14.20;8.00;;;;;;;12.75;77.71;101165.25;115670;1192;72595;-78
2021/10/19 08:18:13;;;;;;;12.10;7.20;;;;;;;12.74;77.69;101172.29;115658;1192;60306;-78
2021/10/19 08:20:40;;;;;;;14.60;8.00;;;;;;;12.69;77.72;101174.08;115767;1192;60212;-78
2021/10/19 08:23:08;;;;;;;14.80;8.20;;;;;;;12.63;78.12;101174.60;115673;1192;72546;-78
2021/10/19 08:25:35;;;;;;;14.30;8.10;;;;;;;12.55;78.72;101168.52;115533;1192;71572;-78
2021/10/19 08:28:02;;;;;;;15.10;8.40;;;;;;;12.53;79.27;101166.74;115511;1192;72653;-78
2021/10/19 08:30:28;;;;;;;12.40;7.10;;;;;;;12.50;79.04;101170.05;115753;1192;61992;-78
2021/10/19 08:32:56;;;;;;;14.20;8.80;;;;;;;12.48;79.11;101164.30;115654;1192;59108;-77
2021/10/19 08:35:24;;;;;;;15.90;10.00;;;;;;;12.49;79.28;101162.57;115787;1192;73633;-79
2021/10/19 08:37:52;;;;;;;13.90;8.20;;;;;;;12.51;79.62;101157.17;115790;1192;70858;-78
2021/10/19 08:40:19;;;;;;;10.60;7.20;;;;;;;12.54;79.53;101157.65;115662;1192;71674;-78
2021/10/19 08:42:52;;;;;;;16.70;10.60;;;;;;;12.58;78.69;101150.64;115519;1192;62656;-78
2021/10/19 08:45:20;;;;;;;13.60;8.80;;;;;;;12.64;78.88;101148.17;115586;1192;60500;-78
2021/10/19 08:47:48;;;;;;;15.20;7.90;;;;;;;12.75;78.66;101148.23;115801;1186;74473;-78
2021/10/19 08:50:18;;;;;;;14.80;8.70;;;;;;;12.84;77.62;101155.31;115752;1192;72631;-78
2021/10/19 08:52:46;;;;;;;14.20;9.20;;;;;;;12.92;77.60;101151.76;115814;1192;73613;-78
2021/10/19 08:55:13;;;;;;;18.30;9.60;;;;;;;12.99;77.23;101155.36;115652;1192;60392;-79
2021/10/19 08:57:40;;;;;;;15.30;8.60;;;;;;;13.05;76.90;101154.48;115661;1192;60758;-78
2021/10/19 09:00:08;;;;;;;15.20;7.40;;;;;;;13.12;76.92;101153.11;115794;1192;74311;-78
2021/10/19 09:02:44;;;;;;;15.50;8.00;;;;;;;13.18;76.55;101152.02;115259;1192;72068;-78
2021/10/19 09:05:22;;;;;;;11.90;7.10;;;;;;;13.19;76.16;101149.13;115741;1192;72760;-78
2021/10/19 09:08:01;;;;;;;16.10;9.80;;;;;;;13.16;76.04;101152.48;115759;1192;61662;-72
2021/10/19 09:10:36;;;;;;;16.30;10.20;;;;;;;13.15;76.19;101141.89;115801;1192;61334;-73
2021/10/19 09:13:04;;;;;;;;;;;;;;;13.20;76.14;101140.79;115682;1192;75463;-73
2021/10/19 09:15:39;;;;;;;13.20;8.00;;;;;;;13.27;75.94;101143.52;115733;1192;72106;-73
2021/10/19 09:18:09;;;;;;;14.90;8.70;;;;;;;13.33;75.70;101138.05;115793;1192;72529;-73
2021/10/19 09:20:39;;;;;;;12.00;7.30;;;;;;;13.39;75.63;101137.89;115734;1186;63963;-74
2021/10/19 09:23:08;;;;;;;13.90;8.20;;;;;;;13.41;75.43;101138.84;115555;1192;61689;-73
2021/10/19 09:25:38;;;;;;;12.60;7.80;;;;;;;13.39;75.27;101142.61;115676;1192;75594;-73
2021/10/19 09:28:11;;;;;;;17.30;8.20;;;;;;;13.39;75.77;101144.46;115824;1192;72042;-74
2021/10/19 09:30:44;;;;;;;10.10;5.70;;;;;;;13.45;76.04;101132.90;115897;1191;72521;-74
2021/10/19 09:33:15;;;;;;;14.70;8.50;;;;;;;13.55;75.90;101127.38;115814;1192;61608;-74
2021/10/19 09:35:43;;;;;;;13.90;8.60;;;;;;;13.64;75.48;101123.81;115756;1192;60509;-74
2021/10/19 09:38:12;;;;;;;11.70;6.10;;;;;;;13.73;75.19;101128.12;115772;1192;75625;-74
2021/10/19 09:41:00;;;;;;;12.80;8.50;;;;;;;13.82;74.96;101127.37;115750;1192;71058;-74
2021/10/19 09:43:32;;;;;;;12.60;8.60;;;;;;;13.92;75.01;101132.45;115710;1192;72597;-74
2021/10/19 09:46:03;;;;;;;13.30;7.80;;;;;;;13.99;74.83;101126.10;115766;1192;61260;-74
2021/10/19 09:48:33;;;;;;;13.50;6.90;;;;;;;14.04;74.14;101118.53;115825;1192;60179;-74
2021/10/19 09:51:01;;;;;;;13.10;7.90;;;;;;;14.07;74.30;101114.06;115810;1192;74556;-74
2021/10/19 09:53:29;;;;;;;13.90;7.90;;;;;;;14.18;74.39;101112.70;115802;1192;72108;-74
2021/10/19 09:55:57;;;;;;;12.60;8.20;;;;;;;14.21;74.03;101117.54;115830;1192;72569;-74
2021/10/19 09:58:33;;;;;;;11.60;7.40;;;;;;;14.21;74.11;101117.90;115420;1186;61016;-74
2021/10/19 10:01:00;;;;;;;11.90;7.00;;;;;;;14.25;74.17;101119.88;115691;1192;61347;-74
2021/10/19 10:03:27;;;;;;;10.90;7.50;;;;;;;14.33;73.92;101116.55;115757;1191;75744;-74
2021/10/19 10:05:55;;;;;;;9.40;6.50;;;;;;;14.46;73.58;101118.56;115838;1192;71192;-74
2021/10/19 10:08:26;;;;;;;11.50;6.80;;;;;;;14.50;73.13;101125.67;115803;1192;73880;-74
2021/10/19 10:10:54;;;;;;;12.30;7.40;;;;;;;14.60;73.14;101121.05;115849;1192;60047;-74
2021/10/19 10:13:22;;;;;;;13.00;7.60;;;;;;;14.70;73.09;101119.86;115791;1192;60591;-74
2021/10/19 10:15:50;;;;;;;11.10;7.00;;;;;;;14.76;72.60;101118.39;115885;1192;74610;-74
2021/10/19 10:18:29;;;;;;;11.00;6.90;;;;;;;14.77;72.73;101122.67;115455;1192;71973;-74
2021/10/19 10:20:55;;;;;;;9.80;6.50;;;;;;;14.72;72.74;101119.70;115767;1192;73820;-74
2021/10/19 10:23:26;;;;;;;12.40;6.60;;;;;;;14.71;73.20;101117.98;115793;1192;60238;-74
2021/10/19 10:25:56;;;;;;;12.60;7.30;;;;;;;14.57;73.16;101114.19;115765;1192;61555;-74
2021/10/19 10:28:31;;;;;;;10.70;6.30;;;;;;;14.50;73.67;101105.55;115809;1192;74483;-74
2021/10/19 10:31:18;;;;;;;9.30;5.60;;;;;;;14.42;74.06;101101.00;115778;1192;71385;-74
2021/10/19 10:33:49;;;;;;;10.70;6.90;;;;;;;14.40;74.50;101097.02;115700;1192;73691;-74
2021/10/19 10:36:16;;;;;;;9.40;6.40;;;;;;;14.39;74.60;101096.79;115493;1192;62015;-74
2021/10/19 10:38:57;;;;;;;10.10;7.00;;;;;;;14.37;74.88;101091.23;115821;1192;59224;-74
2021/10/19 10:41:24;;;;;;;10.90;6.30;;;;;;;14.34;75.10;101087.16;115749;1192;74558;-74
2021/10/19 10:44:01;;;;;;;10.50;7.10;;;;;;;14.32;75.28;101083.95;115763;1192;70982;-74
2021/10/19 10:46:27;;;;;;;10.00;6.30;;;;;;;14.33;75.46;101080.83;115775;1192;72675;-74
2021/10/19 10:48:56;;;;;;;8.80;5.70;;;;;;;14.35;75.55;101076.70;115852;1192;61611;-74
2021/10/19 10:51:32;;;;;;;10.30;6.40;;;;;;;14.40;75.50;101073.32;115839;1192;60059;-73
2021/10/19 10:54:00;;;;;;;8.70;5.30;;;;;;;14.50;75.46;101066.75;115731;1192;75762;-74
2021/10/19 10:56:40;;;;;;;9.70;6.00;;;;;;;14.56;75.24;101061.43;115728;1192;70877;-74
2021/10/19 10:59:07;;;;;;;8.50;5.30;;;;;;;14.67;75.27;101056.82;115768;1192;72781;-74
2021/10/19 11:01:34;;;;;;;9.80;6.10;;;;;;;14.78;74.78;101050.81;115820;1192;60912;-74
2021/10/19 11:04:09;;;;;;;7.50;5.10;;;;;;;14.78;74.51;101058.33;115719;1192;61156;-74
2021/10/19 11:06:39;;;;;;;9.90;5.30;;;;;;;14.73;74.71;101057.77;115743;1192;75611;-74
2021/10/19 11:09:12;;;;;;;7.10;4.80;;;;;;;14.71;75.02;101058.70;115859;1192;72084;-74
2021/10/19 11:11:44;;;;;;;9.60;6.00;;;;;;;14.64;75.22;101054.91;115851;1192;72862;-74
2021/10/19 11:14:23;;;;;;;8.30;5.50;;;;;;;14.56;75.51;101055.27;115726;1192;61524;-74